This is the latest recevied weather packets stored in our database for station/object KF4ZNO-13. If no packets are shown the sender has not sent any weather packets the latest 10 day(s).
| Time | Temp. | Humidity | Pressure | Rain* | Wind** | Luminosity | Snow |
|---|---|---|---|---|---|---|---|
| 1777638618 | 17.78° C | 89% | 1015 hPa | 0 mm | - | - | - |
| 1777637420 | 17.78° C | 88% | 1014.4 hPa | 0 mm | - | - | - |
| 1777632640 | 18.33° C | 88% | 1013.7 hPa | 0 mm | - | - | - |
| 1777630820 | 18.89° C | 88% | 1013.7 hPa | 0 mm | - | - | - |
| 1777629620 | 18.89° C | 88% | 1013.4 hPa | 0 mm | - | - | - |
| 1777629020 | 18.89° C | 88% | 1013.5 hPa | 0 mm | - | - | - |
| 1777618819 | 19.44° C | 89% | 1013.8 hPa | 0 mm | - | - | - |
| 1777611019 | 20° C | 87% | 1013.6 hPa | 0 mm | - | - | - |
| 1777603819 | 21.11° C | 86% | 1014.6 hPa | 0 mm | - | - | - |
| 1777599619 | 21.67° C | 84% | 1014 hPa | 0 mm | - | - | - |
| 1777597219 | 21.67° C | 83% | 1013.6 hPa | 0 mm | - | - | - |
| 1777589459 | 23.89° C | 77% | 1012.2 hPa | 0 mm | - | - | - |
| 1777585821 | 23.89° C | 76% | 1012 hPa | 0 mm | - | - | - |
| 1777584619 | 24.44° C | 76% | 1012.4 hPa | 0 mm | - | - | - |
| 1777583440 | 24.44° C | 74% | 1012.5 hPa | 0 mm | - | - | - |
| 1777571441 | 22.78° C | 80% | 1014.2 hPa | 0 mm | - | - | - |
| 1777570820 | 22.78° C | 80% | 1014.2 hPa | 0 mm | - | - | - |
| 1777569020 | 23.33° C | 82% | 1014.5 hPa | 0 mm | - | - | - |
| 1777568420 | 22.78° C | 81% | 1014.5 hPa | 0 mm | - | - | - |
| 1777565420 | 22.78° C | 84% | 1014.5 hPa | 0 mm | - | - | - |
| 1777564220 | 22.22° C | 83% | 1014.5 hPa | 0 mm | - | - | - |
| 1777561840 | 21.67° C | 85% | 1014.5 hPa | 0 mm | - | - | - |
| 1777561220 | 21.11° C | 87% | 1014.9 hPa | 0 mm | - | - | - |
| 1777558220 | 20.56° C | 89% | 1014.8 hPa | 0 mm | - | - | - |
| 1777557640 | 20° C | 91% | 1014.7 hPa | 0 mm | - | - | - |
* Rain latest hour (hover to see other rain measurements)
** Current wind speed in m/s (hover to see current wind gust speed)